Time;durP1;ratioP1;P1;durP2;ratioP2;P2;SDS_P1;SDS_P2;PMS_P1;PMS_P2;Temp;Humidity;BMP_temperature;BMP_pressure;BME280_temperature;BME280_humidity;BME280_pressure;Samples;Min_cycle;Max_cycle;Signal;HPM_P1;HPM_P2
2021/10/27 00:01:21;;;;;;;10.57;7.88;;;;;;;;;;10400840;28;20059;-64
2021/10/27 00:06:19;;;;;;;9.07;7.55;;;;;;;;;;10400057;28;20143;-64
2021/10/27 00:11:21;;;;;;;9.25;6.82;;;;;;;;;;10401033;28;20101;-64
2021/10/27 00:16:20;;;;;;;6.20;5.55;;;;;;;;;;10400201;28;20075;-64
2021/10/27 00:21:18;;;;;;;8.23;6.38;;;;;;;;;;10399593;28;20066;-64
2021/10/27 00:26:17;;;;;;;12.95;7.88;;;;;;;;;;10399642;28;20086;-64
2021/10/27 00:31:16;;;;;;;11.52;6.60;;;;;;;;;;10397033;28;20042;-64
2021/10/27 00:36:15;;;;;;;7.88;6.90;;;;;;;;;;10399851;28;20512;-64
2021/10/27 00:41:13;;;;;;;8.00;6.43;;;;;;;;;;10395791;28;20427;-64
2021/10/27 00:46:20;;;;;;;11.52;5.25;;;;;;;;;;10397463;28;20059;-64
2021/10/27 00:51:19;;;;;;;4.63;4.18;;;;;;;;;;10397865;28;20079;-63
2021/10/27 00:56:19;;;;;;;9.82;4.60;;;;;;;;;;10397074;28;20483;-65
2021/10/27 01:01:17;;;;;;;6.13;3.67;;;;;;;;;;10398968;28;20038;-65
2021/10/27 01:06:17;;;;;;;4.95;4.40;;;;;;;;;;10398493;28;20036;-63
2021/10/27 01:11:15;;;;;;;6.63;5.25;;;;;;;;;;10398616;28;20133;-64
2021/10/27 01:16:14;;;;;;;6.45;4.68;;;;;;;;;;10379382;28;20121;-64
2021/10/27 01:21:13;;;;;;;5.53;5.03;;;;;;;;;;10398047;28;20059;-64
2021/10/27 01:26:12;;;;;;;6.35;5.40;;;;;;;;;;10396285;28;20111;-65
2021/10/27 01:31:11;;;;;;;5.95;4.95;;;;;;;;;;10397689;28;20067;-64
2021/10/27 01:36:10;;;;;;;7.20;4.53;;;;;;;;;;10396919;28;20527;-64
2021/10/27 01:41:10;;;;;;;9.13;5.57;;;;;;;;;;10397426;28;20074;-64
2021/10/27 01:46:08;;;;;;;10.38;4.47;;;;;;;;;;10394149;28;20512;-64
2021/10/27 01:51:07;;;;;;;5.10;4.43;;;;;;;;;;10396141;28;20472;-63
2021/10/27 01:56:05;;;;;;;5.60;4.72;;;;;;;;;;10397079;28;20085;-64
2021/10/27 02:01:05;;;;;;;15.52;13.48;;;;;;;;;;10396744;28;20082;-63
2021/10/27 02:06:04;;;;;;;15.32;10.25;;;;;;;;;;10396752;28;20048;-63
2021/10/27 02:11:02;;;;;;;48.45;38.55;;;;;;;;;;10394509;28;20063;-64
2021/10/27 02:16:22;;;;;;;18.55;13.90;;;;;;;;;;10394934;28;20075;-63
2021/10/27 02:21:21;;;;;;;17.65;12.60;;;;;;;;;;10396674;28;20067;-63
2021/10/27 02:26:19;;;;;;;5.20;4.70;;;;;;;;;;10395834;28;20086;-64
2021/10/27 02:31:20;;;;;;;5.43;4.88;;;;;;;;;;10396561;28;20027;-64
2021/10/27 02:36:20;;;;;;;6.75;6.15;;;;;;;;;;10396293;28;20070;-65
2021/10/27 02:41:19;;;;;;;11.45;8.80;;;;;;;;;;10396350;28;20059;-64
2021/10/27 02:46:17;;;;;;;10.07;6.43;;;;;;;;;;10394699;28;20067;-62
2021/10/27 02:51:16;;;;;;;8.40;6.38;;;;;;;;;;10395323;28;20063;-64
2021/10/27 02:56:15;;;;;;;10.40;7.15;;;;;;;;;;10395747;28;20070;-64
2021/10/27 03:01:14;;;;;;;6.50;5.85;;;;;;;;;;10397087;28;20039;-64
2021/10/27 03:06:12;;;;;;;7.95;6.43;;;;;;;;;;10403414;28;20054;-64
2021/10/27 03:11:11;;;;;;;7.88;5.75;;;;;;;;;;10403126;28;20043;-64
2021/10/27 03:16:10;;;;;;;5.30;4.78;;;;;;;;;;10399335;28;20523;-64
2021/10/27 03:21:09;;;;;;;12.50;5.15;;;;;;;;;;10399582;28;20061;-62
2021/10/27 03:26:07;;;;;;;6.22;5.03;;;;;;;;;;10402473;28;20385;-64
2021/10/27 03:31:06;;;;;;;9.77;5.90;;;;;;;;;;10400415;28;20075;-64
2021/10/27 03:36:05;;;;;;;5.15;4.60;;;;;;;;;;10402077;28;20071;-64
2021/10/27 03:41:04;;;;;;;5.22;4.70;;;;;;;;;;10400453;28;20067;-64
2021/10/27 03:46:02;;;;;;;7.93;5.07;;;;;;;;;;10397255;28;20064;-64
2021/10/27 03:51:00;;;;;;;8.18;4.78;;;;;;;;;;10399998;28;20050;-65
2021/10/27 03:56:00;;;;;;;5.25;4.55;;;;;;;;;;10399940;28;20063;-63
2021/10/27 04:00:58;;;;;;;6.68;6.00;;;;;;;;;;10401199;28;20089;-64
2021/10/27 04:05:57;;;;;;;8.25;5.35;;;;;;;;;;10400455;28;20044;-65
2021/10/27 04:10:55;;;;;;;8.18;5.68;;;;;;;;;;10400839;28;20446;-64
2021/10/27 04:15:55;;;;;;;6.88;5.57;;;;;;;;;;10398786;28;20079;-64
2021/10/27 04:20:53;;;;;;;8.40;7.40;;;;;;;;;;10399427;28;20504;-64
2021/10/27 04:25:52;;;;;;;9.00;6.28;;;;;;;;;;10400376;28;20424;-65
2021/10/27 04:30:50;;;;;;;8.63;6.85;;;;;;;;;;10399929;28;20071;-64
2021/10/27 04:35:52;;;;;;;8.50;7.80;;;;;;;;;;10399358;28;20059;-64
2021/10/27 04:40:50;;;;;;;18.63;14.63;;;;;;;;;;10393155;28;20067;-63
2021/10/27 04:45:48;;;;;;;14.98;12.48;;;;;;;;;;10386781;28;20424;-64
2021/10/27 04:50:47;;;;;;;16.08;8.73;;;;;;;;;;10390999;28;20082;-64
2021/10/27 04:55:47;;;;;;;8.05;6.78;;;;;;;;;;10394327;28;20089;-65
2021/10/27 05:00:45;;;;;;;13.50;8.07;;;;;;;;;;10387823;28;20571;-63
2021/10/27 05:05:48;;;;;;;11.38;8.05;;;;;;;;;;10394762;28;20071;-64
2021/10/27 05:10:47;;;;;;;8.95;8.05;;;;;;;;;;10394919;28;20063;-64
2021/10/27 05:15:46;;;;;;;10.75;7.70;;;;;;;;;;10390615;28;20082;-64
2021/10/27 05:20:45;;;;;;;10.38;9.25;;;;;;;;;;10393266;28;21070;-64
2021/10/27 05:25:43;;;;;;;13.90;12.40;;;;;;;;;;10395927;28;20490;-63
2021/10/27 05:30:43;;;;;;;12.70;11.40;;;;;;;;;;10395081;28;20063;-62
2021/10/27 05:35:41;;;;;;;11.40;10.13;;;;;;;;;;10390460;28;20067;-64
2021/10/27 05:40:41;;;;;;;19.98;15.85;;;;;;;;;;10395004;28;20070;-64
2021/10/27 05:45:39;;;;;;;13.65;11.13;;;;;;;;;;10386698;28;20493;-64
2021/10/27 05:50:41;;;;;;;15.40;11.50;;;;;;;;;;10393650;28;20341;-64
2021/10/27 05:55:40;;;;;;;58.70;15.70;;;;;;;;;;10391983;28;20071;-64
2021/10/27 06:00:39;;;;;;;57.42;15.10;;;;;;;;;;10396268;28;20071;-63
2021/10/27 06:05:39;;;;;;;18.50;15.15;;;;;;;;;;10390381;28;20063;-64
2021/10/27 06:10:37;;;;;;;25.60;16.65;;;;;;;;;;10396719;28;20067;-64
2021/10/27 06:15:35;;;;;;;19.00;12.15;;;;;;;;;;10390587;28;20091;-64
2021/10/27 06:20:39;;;;;;;39.35;21.25;;;;;;;;;;10391199;28;20078;-64
2021/10/27 06:25:38;;;;;;;29.60;19.40;;;;;;;;;;10378243;28;20063;-63
2021/10/27 06:30:44;;;;;;;44.60;16.05;;;;;;;;;;10389739;28;21884;-63
2021/10/27 06:35:45;;;;;;;39.20;16.20;;;;;;;;;;10390389;28;20066;-64
2021/10/27 06:46:25;;;;;;;33.50;21.58;;;;;;;;;;10397409;28;20059;-65
2021/10/27 06:51:25;;;;;;;25.38;18.60;;;;;;;;;;10401713;28;20055;-64
2021/10/27 06:56:23;;;;;;;23.98;15.05;;;;;;;;;;10402408;28;20062;-63
2021/10/27 07:01:26;;;;;;;24.63;17.67;;;;;;;;;;10401045;28;20063;-63
2021/10/27 07:06:53;;;;;;;59.53;18.35;;;;;;;;;;10401733;28;20520;-65
2021/10/27 07:17:08;;;;;;;30.98;15.27;;;;;;;;;;10400405;28;20102;-64
2021/10/27 07:22:10;;;;;;;113.82;22.52;;;;;;;;;;10400559;28;20538;-64
2021/10/27 07:27:12;;;;;;;;;;;;;;;;;;10401034;28;20064;-65
2021/10/27 07:32:12;;;;;;;86.25;25.48;;;;;;;;;;10400929;28;19962;-65
2021/10/27 07:42:27;;;;;;;60.35;18.83;;;;;;;;;;10399726;28;20081;-64
2021/10/27 07:47:26;;;;;;;29.08;21.38;;;;;;;;;;10397483;28;20070;-63
2021/10/27 07:52:26;;;;;;;54.33;24.20;;;;;;;;;;10399229;28;20558;-64
2021/10/27 07:57:25;;;;;;;51.72;23.00;;;;;;;;;;10400094;28;20437;-66
2021/10/27 08:02:32;;;;;;;43.45;26.10;;;;;;;;;;10399926;28;20063;-65
2021/10/27 08:07:51;;;;;;;42.13;26.45;;;;;;;;;;10398307;28;20125;-65
2021/10/27 08:12:51;;;;;;;45.08;19.80;;;;;;;;;;10399125;28;20102;-65
2021/10/27 08:17:50;;;;;;;61.38;33.42;;;;;;;;;;10398760;28;20083;-64
2021/10/27 08:22:53;;;;;;;52.85;32.83;;;;;;;;;;10379333;28;20040;-65
2021/10/27 08:27:55;;;;;;;35.58;19.67;;;;;;;;;;10399312;28;20036;-65
2021/10/27 08:32:55;;;;;;;39.72;26.90;;;;;;;;;;10380138;28;20074;-64
2021/10/27 08:37:54;;;;;;;33.38;27.33;;;;;;;;;;10397850;28;20082;-64
2021/10/27 08:42:54;;;;;;;36.42;21.67;;;;;;;;;;10379559;28;20027;-66
2021/10/27 08:47:53;;;;;;;33.30;26.38;;;;;;;;;;10378466;28;20091;-65
2021/10/27 08:52:52;;;;;;;25.98;19.92;;;;;;;;;;10395911;28;20106;-65
2021/10/27 08:57:51;;;;;;;35.45;23.13;;;;;;;;;;10397737;28;20493;-65
2021/10/27 09:03:02;;;;;;;32.03;23.38;;;;;;;;;;10396891;28;20059;-64
2021/10/27 09:34:59;;;;;;;27.67;22.50;;;;;;;;;;10395832;28;20073;-65
2021/10/27 10:06:31;;;;;;;30.25;21.17;;;;;;;;;;10395397;28;20043;-64
2021/10/27 10:11:30;;;;;;;26.98;21.75;;;;;;;;;;10398014;28;20051;-64
2021/10/27 10:16:29;;;;;;;28.27;21.83;;;;;;;;;;10403820;28;20075;-64
2021/10/27 10:21:29;;;;;;;29.00;22.45;;;;;;;;;;10403795;28;20071;-63
2021/10/27 10:26:32;;;;;;;27.40;21.42;;;;;;;;;;10403159;28;20074;-64
2021/10/27 10:31:31;;;;;;;26.85;20.73;;;;;;;;;;10403587;28;20512;-65
2021/10/27 10:36:31;;;;;;;28.55;21.92;;;;;;;;;;10403366;28;20445;-64
2021/10/27 10:41:51;;;;;;;25.83;21.52;;;;;;;;;;10402881;28;20066;-63
2021/10/27 10:57:55;;;;;;;24.50;19.05;;;;;;;;;;10400522;28;20059;-63
2021/10/27 11:03:28;;;;;;;26.35;22.50;;;;;;;;;;10400789;28;20100;-64
2021/10/27 11:24:59;;;;;;;29.85;20.63;;;;;;;;;;10397778;28;20071;-65
2021/10/27 11:40:41;;;;;;;23.50;19.52;;;;;;;;;;10400368;28;20074;-65
2021/10/27 11:45:51;;;;;;;21.33;17.65;;;;;;;;;;10398625;28;20522;-65
2021/10/27 11:50:50;;;;;;;17.17;14.50;;;;;;;;;;10398319;28;20071;-63
2021/10/27 11:55:49;;;;;;;19.70;16.60;;;;;;;;;;10399887;28;20032;-64
2021/10/27 12:00:57;;;;;;;22.45;16.15;;;;;;;;;;10398531;28;20075;-65
2021/10/27 12:05:58;;;;;;;26.90;16.02;;;;;;;;;;10399056;28;20043;-65
2021/10/27 12:11:29;;;;;;;18.70;14.52;;;;;;;;;;10397285;28;20386;-65
2021/10/27 12:22:03;;;;;;;20.85;17.33;;;;;;;;;;10319669;28;20082;-65
2021/10/27 12:27:19;;;;;;;29.80;19.70;;;;;;;;;;10399020;28;20075;-65
2021/10/27 12:32:18;;;;;;;18.20;14.88;;;;;;;;;;10397234;28;20064;-65
2021/10/27 12:37:26;;;;;;;18.85;13.73;;;;;;;;;;10397747;28;20504;-64
2021/10/27 12:42:29;;;;;;;13.70;11.63;;;;;;;;;;10396551;28;20063;-65
2021/10/27 12:47:29;;;;;;;16.85;13.05;;;;;;;;;;10397734;28;20040;-64
2021/10/27 12:52:29;;;;;;;21.75;18.02;;;;;;;;;;10397371;28;20063;-65
2021/10/27 12:57:29;;;;;;;22.60;17.90;;;;;;;;;;10397437;28;20059;-64
2021/10/27 13:02:30;;;;;;;32.15;24.05;;;;;;;;;;10397495;28;20066;-64
2021/10/27 13:07:32;;;;;;;20.48;15.32;;;;;;;;;;10397449;28;20072;-65
2021/10/27 13:12:56;;;;;;;25.85;18.63;;;;;;;;;;10396425;28;20047;-65
2021/10/27 13:18:15;;;;;;;19.90;17.13;;;;;;;;;;10396765;28;20083;-65
2021/10/27 13:23:37;;;;;;;27.90;22.40;;;;;;;;;;10394853;28;20078;-65
2021/10/27 13:33:54;;;;;;;24.58;19.52;;;;;;;;;;10395669;28;20071;-66
2021/10/27 13:38:54;;;;;;;25.80;19.60;;;;;;;;;;10394885;28;20063;-65
2021/10/27 13:43:59;;;;;;;35.22;26.63;;;;;;;;;;10395299;28;20063;-63
2021/10/27 14:10:06;;;;;;;228.15;130.50;;;;;;;;;;10394814;28;20059;-64
2021/10/27 14:15:18;;;;;;;58.65;39.40;;;;;;;;;;10394009;28;20063;-64
2021/10/27 14:20:27;;;;;;;22.15;18.88;;;;;;;;;;10393044;28;20075;-64
2021/10/27 14:47:15;;;;;;;59.97;42.55;;;;;;;;;;10315328;28;20079;-63
2021/10/27 15:24:41;;;;;;;32.72;23.52;;;;;;;;;;10398467;28;20075;-65
2021/10/27 15:35:08;;;;;;;27.45;22.65;;;;;;;;;;10400421;28;20090;-65
2021/10/27 15:50:30;;;;;;;38.53;28.15;;;;;;;;;;10321548;28;20493;-66
2021/10/27 15:51:04;;;;;;;30.37;24.67;;;;;;;;;;10399915;28;20089;-64
2021/10/27 15:56:03;;;;;;;176.23;119.20;;;;;;;;;;10400294;28;20051;-63
2021/10/27 16:01:01;;;;;;;62.35;48.92;;;;;;;;;;10399788;28;20575;-63
2021/10/27 16:06:01;;;;;;;43.58;27.08;;;;;;;;;;10398940;28;20097;-66
2021/10/27 16:11:00;;;;;;;26.23;20.17;;;;;;;;;;10390601;28;20074;-63
2021/10/27 16:16:00;;;;;;;27.35;20.15;;;;;;;;;;10386386;28;20085;-63
2021/10/27 16:20:59;;;;;;;22.02;16.67;;;;;;;;;;10393975;28;20370;-64
2021/10/27 16:25:58;;;;;;;19.40;16.63;;;;;;;;;;10398285;28;20082;-65
2021/10/27 16:30:58;;;;;;;23.90;19.80;;;;;;;;;;10398501;28;20063;-65
2021/10/27 16:35:57;;;;;;;25.92;20.55;;;;;;;;;;10398303;28;20063;-65
2021/10/27 16:40:55;;;;;;;22.90;19.50;;;;;;;;;;10398157;28;20071;-65
2021/10/27 16:45:53;;;;;;;23.85;19.13;;;;;;;;;;10398031;28;20089;-65
2021/10/27 16:50:53;;;;;;;20.88;16.42;;;;;;;;;;10397814;28;20063;-65
2021/10/27 16:55:52;;;;;;;18.05;15.88;;;;;;;;;;10395460;28;20415;-63
2021/10/27 17:00:50;;;;;;;18.33;16.27;;;;;;;;;;10397655;28;20075;-63
2021/10/27 17:05:49;;;;;;;18.23;16.23;;;;;;;;;;10396418;28;20036;-64
2021/10/27 17:10:49;;;;;;;22.20;18.27;;;;;;;;;;10397122;28;20043;-64
2021/10/27 17:15:47;;;;;;;22.58;19.92;;;;;;;;;;10396557;28;20116;-64
2021/10/27 17:20:46;;;;;;;22.27;18.63;;;;;;;;;;10376522;28;20075;-64
2021/10/27 17:25:45;;;;;;;16.45;14.65;;;;;;;;;;10395772;28;20310;-65
2021/10/27 17:30:47;;;;;;;18.38;13.77;;;;;;;;;;10396283;28;20102;-64
2021/10/27 17:35:45;;;;;;;18.55;14.75;;;;;;;;;;10396260;28;20050;-64
2021/10/27 17:40:45;;;;;;;20.95;17.85;;;;;;;;;;10377765;28;20112;-64
2021/10/27 17:45:45;;;;;;;19.73;16.20;;;;;;;;;;10395830;28;20704;-64
2021/10/27 17:51:02;;;;;;;26.92;19.00;;;;;;;;;;10395118;28;20055;-64
2021/10/27 18:01:19;;;;;;;17.17;14.30;;;;;;;;;;10395488;28;20066;-64
2021/10/27 18:06:18;;;;;;;16.38;14.07;;;;;;;;;;10394595;28;20139;-65
2021/10/27 18:11:19;;;;;;;14.32;12.70;;;;;;;;;;10395133;28;20476;-64
2021/10/27 18:16:25;;;;;;;22.80;18.92;;;;;;;;;;10394844;28;20079;-64
2021/10/27 18:21:26;;;;;;;16.88;14.38;;;;;;;;;;10392944;28;20067;-64
2021/10/27 18:37:24;;;;;;;22.67;13.27;;;;;;;;;;10268896;28;20076;-64
2021/10/27 18:42:27;;;;;;;16.00;13.65;;;;;;;;;;10265985;28;20104;-64
2021/10/27 18:47:29;;;;;;;15.45;12.88;;;;;;;;;;10265845;28;20075;-64
2021/10/27 18:52:41;;;;;;;15.88;13.25;;;;;;;;;;10266528;28;20079;-64
2021/10/27 18:58:06;;;;;;;20.73;14.52;;;;;;;;;;10268312;28;20068;-64
2021/10/27 19:03:33;;;;;;;21.45;14.65;;;;;;;;;;10265530;28;20076;-64
2021/10/27 19:14:16;;;;;;;13.73;12.25;;;;;;;;;;10265706;28;20052;-64
2021/10/27 19:19:15;;;;;;;17.73;13.68;;;;;;;;;;10265788;28;20072;-63
2021/10/27 19:24:21;;;;;;;17.23;13.68;;;;;;;;;;10264425;28;20092;-64
2021/10/27 19:29:21;;;;;;;18.48;14.85;;;;;;;;;;10264152;28;20073;-64
2021/10/27 19:34:45;;;;;;;18.98;14.88;;;;;;;;;;10262836;28;20041;-63
2021/10/27 20:11:53;;;;;;;15.60;11.82;;;;;;;;;;10235321;28;20073;-64
2021/10/27 20:54:03;;;;;;;15.75;12.60;;;;;;;;;;10228919;28;20069;-64
2021/10/27 20:59:16;;;;;;;16.90;13.23;;;;;;;;;;10234514;28;20073;-64
2021/10/27 21:15:09;;;;;;;20.90;15.25;;;;;;;;;;10217828;28;20072;-64
2021/10/27 21:20:10;;;;;;;16.30;12.80;;;;;;;;;;10241093;28;20444;-64
2021/10/27 21:25:11;;;;;;;15.63;13.20;;;;;;;;;;10232886;28;20049;-64
2021/10/27 21:30:23;;;;;;;15.77;12.10;;;;;;;;;;10234029;28;20085;-63
2021/10/27 21:45:54;;;;;;;14.98;12.20;;;;;;;;;;10234771;28;20041;-65
2021/10/27 21:50:53;;;;;;;16.13;13.23;;;;;;;;;;10243443;28;20057;-64
2021/10/27 21:55:55;;;;;;;15.50;13.45;;;;;;;;;;10240780;28;20572;-64
2021/10/27 22:00:59;;;;;;;15.07;12.05;;;;;;;;;;10236990;28;20077;-63
2021/10/27 22:05:58;;;;;;;16.27;11.65;;;;;;;;;;10233321;28;20065;-64
2021/10/27 22:10:57;;;;;;;18.17;11.90;;;;;;;;;;10235393;28;20072;-63
2021/10/27 22:15:59;;;;;;;17.38;12.85;;;;;;;;;;10236761;28;20416;-63
2021/10/27 22:20:57;;;;;;;15.45;12.57;;;;;;;;;;10247482;28;20061;-65
2021/10/27 22:25:56;;;;;;;17.25;12.88;;;;;;;;;;10234647;28;20068;-64
2021/10/27 22:30:56;;;;;;;16.85;12.80;;;;;;;;;;10236791;28;20515;-64
2021/10/27 22:35:55;;;;;;;13.18;11.75;;;;;;;;;;10236635;28;20087;-62
2021/10/27 22:40:54;;;;;;;19.08;16.50;;;;;;;;;;10238125;28;20033;-63
2021/10/27 22:45:52;;;;;;;18.70;14.25;;;;;;;;;;10238528;28;20065;-67
2021/10/27 22:50:52;;;;;;;19.85;13.90;;;;;;;;;;10242789;28;20076;-64
2021/10/27 22:55:51;;;;;;;24.95;16.58;;;;;;;;;;10240102;28;20073;-64
2021/10/27 23:00:55;;;;;;;34.03;26.98;;;;;;;;;;10232256;28;20532;-64
2021/10/27 23:06:03;;;;;;;15.50;12.55;;;;;;;;;;10233096;28;20430;-64
2021/10/27 23:11:11;;;;;;;14.18;11.80;;;;;;;;;;10232964;28;20076;-66
2021/10/27 23:42:34;;;;;;;16.30;12.70;;;;;;;;;;10238538;28;20100;-65
2021/10/27 23:47:33;;;;;;;20.42;15.02;;;;;;;;;;10238806;28;20052;-65
2021/10/27 23:52:37;;;;;;;48.58;26.25;;;;;;;;;;10240816;28;20081;-65
2021/10/27 23:57:40;;;;;;;41.10;21.45;;;;;;;;;;10243605;28;20546;-63
